createdAt,value
2022-08-19T00:00:26.135Z,21.58
2022-08-19T00:03:29.157Z,21.57
2022-08-19T00:06:32.711Z,21.60
2022-08-19T00:09:36.634Z,21.64
2022-08-19T00:12:40.261Z,21.62
2022-08-19T00:15:51.318Z,21.66
2022-08-19T00:18:54.529Z,21.67
2022-08-19T00:21:57.501Z,21.68
2022-08-19T00:25:00.681Z,21.56
2022-08-19T00:28:06.341Z,21.55
2022-08-19T00:31:11.296Z,21.57
2022-08-19T00:34:16.189Z,21.65
2022-08-19T00:37:19.141Z,21.67
2022-08-19T00:40:22.672Z,21.57
2022-08-19T00:43:28.219Z,21.61
2022-08-19T00:46:33.744Z,21.48
2022-08-19T00:49:41.714Z,21.43
2022-08-19T00:52:49.648Z,21.43
2022-08-19T00:55:55.697Z,21.38
2022-08-19T00:59:00.865Z,21.42
2022-08-19T01:02:05.982Z,21.39
2022-08-19T01:05:13.662Z,21.36
2022-08-19T01:08:19.828Z,21.47
2022-08-19T01:11:23.050Z,21.50
2022-08-19T01:14:26.968Z,21.40
2022-08-19T01:17:31.865Z,21.47
2022-08-19T01:20:35.402Z,21.57
2022-08-19T01:23:45.358Z,21.55
2022-08-19T01:26:50.119Z,21.53
2022-08-19T01:29:54.016Z,21.45
2022-08-19T01:32:57.663Z,21.46
2022-08-19T01:36:08.390Z,21.41
2022-08-19T01:39:16.599Z,21.22
2022-08-19T01:42:20.131Z,21.18
2022-08-19T01:45:35.444Z,21.08
2022-08-19T01:48:41.413Z,21.03
2022-08-19T01:51:44.401Z,20.92
2022-08-19T01:54:48.750Z,20.86
2022-08-19T01:57:56.554Z,20.80
2022-08-19T02:01:00.675Z,20.72
2022-08-19T02:04:04.605Z,20.66
2022-08-19T02:07:08.894Z,20.55
2022-08-19T02:10:19.666Z,20.52
2022-08-19T02:13:26.233Z,20.61
2022-08-19T02:16:31.256Z,20.70
2022-08-19T02:19:34.707Z,20.64
2022-08-19T02:22:37.752Z,20.57
2022-08-19T02:25:43.236Z,20.60
2022-08-19T02:28:46.667Z,20.57
2022-08-19T02:31:49.877Z,20.56
2022-08-19T02:34:53.203Z,20.57
2022-08-19T02:38:13.604Z,20.58
2022-08-19T02:41:21.172Z,20.51
2022-08-19T02:44:31.603Z,20.51
2022-08-19T02:47:35.766Z,20.59
2022-08-19T02:50:40.507Z,20.55
2022-08-19T02:53:55.808Z,20.59
2022-08-19T02:57:00.710Z,20.63
2022-08-19T03:00:08.887Z,20.65
2022-08-19T03:03:12.388Z,20.66
2022-08-19T03:06:18.637Z,20.66
2022-08-19T03:09:22.353Z,20.58
2022-08-19T03:12:26.882Z,20.51
2022-08-19T03:15:30.004Z,20.49
2022-08-19T03:18:32.992Z,20.46
2022-08-19T03:21:37.404Z,20.46
2022-08-19T03:24:41.338Z,20.41
2022-08-19T03:27:46.882Z,20.43
2022-08-19T03:31:01.801Z,20.37
2022-08-19T03:34:05.095Z,20.36
2022-08-19T03:37:13.900Z,20.31
2022-08-19T03:40:17.093Z,20.30
2022-08-19T03:43:22.072Z,20.30
2022-08-19T03:46:29.187Z,20.25
2022-08-19T03:49:35.995Z,20.31
2022-08-19T03:52:40.383Z,20.27
2022-08-19T03:55:49.939Z,20.29
2022-08-19T03:58:54.523Z,20.31
2022-08-19T04:02:01.376Z,20.34
2022-08-19T04:05:04.635Z,20.33
2022-08-19T04:08:11.964Z,20.36
2022-08-19T04:11:19.339Z,20.38
2022-08-19T04:14:26.493Z,20.40
2022-08-19T04:17:29.541Z,20.42
2022-08-19T04:20:32.903Z,20.42
2022-08-19T04:23:37.102Z,20.48
2022-08-19T04:26:48.774Z,20.49
2022-08-19T04:29:56.016Z,20.48
2022-08-19T04:32:58.967Z,20.44
2022-08-19T04:36:01.953Z,20.49
2022-08-19T04:39:09.166Z,20.49
2022-08-19T04:42:30.907Z,20.50
2022-08-19T04:45:39.491Z,20.52
2022-08-19T04:48:49.481Z,20.51
2022-08-19T04:51:55.149Z,20.58
2022-08-19T04:54:58.113Z,20.60
2022-08-19T04:58:01.047Z,20.67
2022-08-19T05:01:06.874Z,20.69
2022-08-19T05:04:09.903Z,20.63
2022-08-19T05:07:13.752Z,20.67
2022-08-19T05:10:16.792Z,20.69
2022-08-19T05:13:21.367Z,20.70
2022-08-19T05:16:28.161Z,20.75
2022-08-19T05:19:48.441Z,20.77
2022-08-19T05:22:51.477Z,20.79
2022-08-19T05:25:54.556Z,20.82
2022-08-19T05:28:57.800Z,20.88
2022-08-19T05:32:03.428Z,20.97
2022-08-19T05:35:08.015Z,21.01
2022-08-19T05:38:12.122Z,20.91
2022-08-19T05:41:17.510Z,21.00
2022-08-19T05:44:22.653Z,21.10
2022-08-19T05:47:26.954Z,21.03
2022-08-19T05:50:30.872Z,21.08
2022-08-19T05:53:34.592Z,21.11
2022-08-19T05:56:40.680Z,21.16
2022-08-19T05:59:46.671Z,21.24
2022-08-19T06:02:52.073Z,21.26
2022-08-19T06:05:56.001Z,21.35
2022-08-19T06:08:59.001Z,21.29
2022-08-19T06:12:03.551Z,21.34
2022-08-19T06:15:11.120Z,21.33
2022-08-19T06:18:16.440Z,21.39
2022-08-19T06:21:21.054Z,21.48
2022-08-19T06:24:27.011Z,21.43
2022-08-19T06:27:31.774Z,21.45
2022-08-19T06:30:34.778Z,21.53
2022-08-19T06:33:40.754Z,21.55
2022-08-19T06:36:48.142Z,21.58
2022-08-19T06:39:51.950Z,21.60
2022-08-19T06:42:57.267Z,21.65
2022-08-19T06:46:02.057Z,21.73
2022-08-19T06:49:07.300Z,21.76
2022-08-19T06:52:15.283Z,21.74
2022-08-19T06:55:18.501Z,21.76
2022-08-19T06:58:22.229Z,21.86
2022-08-19T07:01:25.473Z,21.87
2022-08-19T07:04:33.803Z,21.81
2022-08-19T07:07:37.002Z,21.89
2022-08-19T07:10:44.900Z,22.09
2022-08-19T07:13:49.555Z,22.19
2022-08-19T07:16:59.044Z,22.19
2022-08-19T07:20:07.008Z,22.15
2022-08-19T07:23:16.576Z,22.13
2022-08-19T07:26:27.948Z,22.12
2022-08-19T07:29:34.330Z,22.19
2022-08-19T07:32:38.375Z,22.20
2022-08-19T07:35:43.050Z,22.24
2022-08-19T07:38:49.872Z,22.44
2022-08-19T07:41:53.321Z,22.26
2022-08-19T07:44:56.324Z,22.40
2022-08-19T07:47:59.918Z,22.26
2022-08-19T07:51:09.164Z,22.45
2022-08-19T07:54:12.555Z,22.39
2022-08-19T07:57:15.840Z,22.44
2022-08-19T08:00:23.146Z,22.54
2022-08-19T08:03:43.246Z,22.57
2022-08-19T08:07:05.421Z,22.60
2022-08-19T08:10:13.978Z,22.58
2022-08-19T08:13:24.138Z,22.53
2022-08-19T08:16:32.055Z,22.53
2022-08-19T08:19:35.476Z,22.61
2022-08-19T08:23:02.575Z,22.65
2022-08-19T08:26:05.709Z,22.81
2022-08-19T08:29:13.045Z,22.88
2022-08-19T08:32:16.570Z,23.07
2022-08-19T08:35:22.828Z,23.17
2022-08-19T08:38:28.214Z,23.32
2022-08-19T08:41:48.821Z,23.52
2022-08-19T08:45:00.409Z,23.63
2022-08-19T08:48:22.033Z,23.59
2022-08-19T08:51:35.378Z,23.72
2022-08-19T08:54:48.941Z,23.71
2022-08-19T08:58:03.743Z,23.62
2022-08-19T09:01:06.988Z,23.51
2022-08-19T09:04:10.352Z,23.36
2022-08-19T09:07:35.350Z,23.59
2022-08-19T09:10:46.219Z,23.64
2022-08-19T09:14:47.392Z,23.66
2022-08-19T09:17:42.916Z,23.85
2022-08-19T09:20:47.892Z,23.90
2022-08-19T09:23:51.086Z,23.84
2022-08-19T09:26:56.502Z,23.85
2022-08-19T09:30:01.222Z,23.92
2022-08-19T09:33:05.502Z,24.01
2022-08-19T09:36:12.878Z,24.00
2022-08-19T09:39:24.857Z,23.88
2022-08-19T09:42:50.313Z,23.98
2022-08-19T09:45:54.740Z,23.95
2022-08-19T09:49:03.010Z,24.04
2022-08-19T09:52:13.693Z,24.16
2022-08-19T09:55:16.990Z,23.96
2022-08-19T09:58:26.650Z,23.95
2022-08-19T10:01:32.713Z,24.21
2022-08-19T10:04:53.463Z,24.17
2022-08-19T10:07:56.893Z,24.24
2022-08-19T10:11:28.373Z,24.14
2022-08-19T10:14:26.657Z,24.10
2022-08-19T10:17:31.517Z,23.95
2022-08-19T10:20:37.574Z,23.90
2022-08-19T10:23:46.086Z,24.00
2022-08-19T10:26:57.247Z,24.03
2022-08-19T10:30:04.857Z,24.21
2022-08-19T10:33:14.953Z,24.32
2022-08-19T10:36:21.258Z,24.51
2022-08-19T10:39:24.304Z,24.75
2022-08-19T10:42:33.968Z,24.89
2022-08-19T10:45:38.263Z,24.66
2022-08-19T10:48:56.610Z,24.68
2022-08-19T10:52:18.802Z,24.56
2022-08-19T10:55:43.544Z,24.34
2022-08-19T10:58:46.518Z,24.31
2022-08-19T11:01:53.026Z,24.19
2022-08-19T11:05:01.836Z,24.11
2022-08-19T11:08:17.686Z,24.09
2022-08-19T11:11:26.535Z,24.13
2022-08-19T11:14:32.156Z,23.99
2022-08-19T11:17:41.593Z,23.96
2022-08-19T11:20:44.529Z,23.71
2022-08-19T11:23:49.764Z,23.65
2022-08-19T11:26:59.870Z,23.61
2022-08-19T11:30:04.526Z,23.64
2022-08-19T11:33:11.886Z,23.64
2022-08-19T11:36:15.244Z,23.76
2022-08-19T11:39:22.588Z,23.87
2022-08-19T11:42:42.910Z,24.16
2022-08-19T11:45:45.882Z,24.04
2022-08-19T11:48:51.782Z,23.91
2022-08-19T11:51:55.200Z,23.90
2022-08-19T11:54:58.168Z,23.96
2022-08-19T11:58:01.164Z,24.04
2022-08-19T12:01:08.253Z,24.19
2022-08-19T12:04:12.928Z,24.27
2022-08-19T12:07:16.065Z,24.14
2022-08-19T12:10:20.665Z,24.15
2022-08-19T12:13:26.402Z,24.11
2022-08-19T12:16:31.522Z,24.29
2022-08-19T12:19:40.703Z,24.65
2022-08-19T12:22:44.426Z,24.54
2022-08-19T12:25:51.088Z,24.50
2022-08-19T12:28:54.920Z,24.30
2022-08-19T12:32:02.088Z,24.38
2022-08-19T12:35:10.113Z,24.28
2022-08-19T12:38:15.525Z,24.40
2022-08-19T12:41:19.720Z,24.59
2022-08-19T12:44:29.607Z,24.43
2022-08-19T12:47:35.718Z,24.26
2022-08-19T12:50:43.969Z,24.36
2022-08-19T12:53:48.345Z,24.41
2022-08-19T12:56:51.296Z,24.49
2022-08-19T12:59:55.375Z,24.68
2022-08-19T13:02:58.342Z,24.76
2022-08-19T13:06:02.697Z,24.73
2022-08-19T13:09:06.394Z,24.57
2022-08-19T13:12:13.868Z,24.47
2022-08-19T13:15:23.798Z,24.44
2022-08-19T13:18:27.345Z,24.58
2022-08-19T13:21:31.756Z,24.67
2022-08-19T13:24:35.041Z,24.63
2022-08-19T13:27:39.053Z,24.62
2022-08-19T13:30:59.674Z,24.75
2022-08-19T13:34:03.202Z,24.73
2022-08-19T13:37:08.349Z,24.73
2022-08-19T13:40:16.998Z,24.78
2022-08-19T13:43:22.868Z,24.73
2022-08-19T13:46:28.260Z,24.72
2022-08-19T13:49:31.907Z,24.71
2022-08-19T13:52:36.193Z,24.76
2022-08-19T13:55:40.698Z,24.65
2022-08-19T13:58:44.367Z,24.62
2022-08-19T14:01:47.354Z,24.55
2022-08-19T14:04:50.374Z,24.57
2022-08-19T14:07:54.873Z,24.53
2022-08-19T14:10:58.002Z,24.53
2022-08-19T14:14:01.071Z,24.37
2022-08-19T14:17:04.136Z,24.30
2022-08-19T14:20:11.433Z,24.33
2022-08-19T14:23:22.549Z,24.18
2022-08-19T14:26:25.976Z,24.16
2022-08-19T14:29:29.856Z,24.17
2022-08-19T14:32:32.931Z,24.19
2022-08-19T14:35:36.716Z,24.26
2022-08-19T14:38:41.287Z,24.32
2022-08-19T14:41:44.316Z,24.38
2022-08-19T14:44:47.657Z,24.47
2022-08-19T14:47:50.666Z,24.44
2022-08-19T14:50:54.110Z,24.29
2022-08-19T14:53:58.868Z,24.31
2022-08-19T14:57:01.862Z,24.27
2022-08-19T15:00:06.997Z,24.30
2022-08-19T15:03:09.982Z,24.22
2022-08-19T15:06:13.278Z,24.16
2022-08-19T15:09:17.582Z,24.13
2022-08-19T15:12:22.169Z,24.13
2022-08-19T15:15:25.463Z,24.05
2022-08-19T15:18:28.525Z,23.99
2022-08-19T15:21:33.593Z,24.01
2022-08-19T15:24:48.017Z,23.94
2022-08-19T15:27:52.199Z,23.90
2022-08-19T15:30:55.558Z,23.89
2022-08-19T15:33:59.279Z,23.83
2022-08-19T15:37:04.511Z,23.83
2022-08-19T15:40:10.712Z,23.81
2022-08-19T15:43:13.739Z,23.73
2022-08-19T15:46:19.778Z,23.72
2022-08-19T15:49:22.859Z,23.76
2022-08-19T15:52:27.204Z,23.77
2022-08-19T15:55:35.176Z,23.76
2022-08-19T15:58:56.987Z,23.72
2022-08-19T16:02:17.324Z,23.75
2022-08-19T16:05:41.213Z,23.71
2022-08-19T16:08:48.908Z,23.54
2022-08-19T16:11:56.883Z,23.52
2022-08-19T16:15:00.268Z,23.41
2022-08-19T16:18:03.670Z,23.33
2022-08-19T16:21:08.103Z,23.37
2022-08-19T16:24:14.384Z,23.35
2022-08-19T16:27:18.787Z,23.33
2022-08-19T16:30:21.991Z,23.28
2022-08-19T16:33:24.952Z,23.41
2022-08-19T16:36:28.539Z,23.41
2022-08-19T16:39:32.080Z,23.39
2022-08-19T16:42:36.806Z,23.35
2022-08-19T16:45:40.018Z,23.39
2022-08-19T16:48:47.191Z,23.42
2022-08-19T16:51:50.394Z,23.38
2022-08-19T16:54:53.863Z,23.39
2022-08-19T16:57:58.122Z,23.35
2022-08-19T17:01:04.208Z,23.43
2022-08-19T17:04:07.443Z,23.39
2022-08-19T17:07:11.219Z,23.28
2022-08-19T17:10:14.546Z,23.28
2022-08-19T17:13:19.109Z,23.11
2022-08-19T17:16:25.970Z,23.02
2022-08-19T17:19:29.254Z,23.04
2022-08-19T17:22:32.432Z,22.99
2022-08-19T17:25:35.942Z,22.91
2022-08-19T17:28:40.968Z,22.91
2022-08-19T17:31:46.733Z,22.95
2022-08-19T17:34:49.918Z,22.93
2022-08-19T17:37:53.339Z,22.95
2022-08-19T17:41:01.513Z,22.84
2022-08-19T17:44:07.097Z,22.88
2022-08-19T17:47:10.977Z,22.81
2022-08-19T17:50:14.193Z,22.83
2022-08-19T17:53:17.907Z,22.78
2022-08-19T17:56:23.576Z,22.85
2022-08-19T17:59:30.108Z,22.79
2022-08-19T18:02:33.832Z,22.83
2022-08-19T18:05:44.705Z,22.81
2022-08-19T18:08:49.108Z,22.70
2022-08-19T18:11:54.671Z,22.65
2022-08-19T18:15:00.225Z,22.52
2022-08-19T18:18:03.540Z,22.48
2022-08-19T18:21:18.210Z,22.42
2022-08-19T18:24:21.197Z,22.40
2022-08-19T18:27:24.604Z,22.38
2022-08-19T18:30:34.091Z,22.37
2022-08-19T18:33:44.292Z,22.33
2022-08-19T18:36:53.967Z,22.36
2022-08-19T18:40:15.293Z,22.32
2022-08-19T18:43:36.484Z,22.29
2022-08-19T18:46:58.203Z,22.27
2022-08-19T18:50:08.081Z,22.28
2022-08-19T18:53:16.139Z,22.33
2022-08-19T18:56:23.846Z,22.33
2022-08-19T18:59:29.573Z,22.32
2022-08-19T19:02:39.416Z,22.23
2022-08-19T19:05:44.238Z,22.18
2022-08-19T19:08:48.258Z,22.21
2022-08-19T19:11:55.772Z,22.20
2022-08-19T19:14:58.950Z,22.24
2022-08-19T19:18:03.308Z,22.22
2022-08-19T19:21:07.650Z,22.19
2022-08-19T19:24:13.903Z,22.19
2022-08-19T19:27:20.429Z,22.11
2022-08-19T19:30:25.767Z,22.08
2022-08-19T19:33:30.078Z,22.15
2022-08-19T19:36:33.084Z,22.17
2022-08-19T19:39:46.679Z,22.12
2022-08-19T19:42:51.887Z,22.10
2022-08-19T19:45:55.175Z,22.08
2022-08-19T19:49:00.378Z,22.07
2022-08-19T19:52:03.750Z,22.13
2022-08-19T19:55:09.222Z,22.08
2022-08-19T19:58:12.294Z,22.12
2022-08-19T20:01:17.555Z,22.08
2022-08-19T20:04:29.051Z,22.09
2022-08-19T20:07:46.049Z,22.14
2022-08-19T20:10:49.054Z,22.09
2022-08-19T20:13:52.028Z,22.14
2022-08-19T20:16:57.033Z,22.20
2022-08-19T20:20:01.599Z,22.18
2022-08-19T20:23:04.658Z,22.17
2022-08-19T20:26:08.480Z,22.15
2022-08-19T20:29:39.639Z,22.14
2022-08-19T20:32:46.378Z,22.06
2022-08-19T20:35:50.703Z,22.08
2022-08-19T20:38:53.755Z,22.03
2022-08-19T20:41:57.159Z,22.05
2022-08-19T20:45:00.135Z,22.02
2022-08-19T20:48:04.313Z,21.99
2022-08-19T20:51:10.518Z,22.04
2022-08-19T20:54:14.326Z,22.05
2022-08-19T20:57:17.524Z,22.09
2022-08-19T21:00:20.774Z,22.02
2022-08-19T21:03:27.255Z,21.99
2022-08-19T21:06:31.540Z,21.97
2022-08-19T21:09:35.760Z,21.94
2022-08-19T21:12:40.629Z,21.94
2022-08-19T21:15:44.386Z,22.02
2022-08-19T21:18:47.783Z,21.93
2022-08-19T21:21:52.471Z,21.88
2022-08-19T21:24:55.468Z,21.81
2022-08-19T21:27:58.866Z,21.84
2022-08-19T21:31:02.490Z,21.84
2022-08-19T21:34:05.991Z,21.83
2022-08-19T21:37:19.002Z,21.84
2022-08-19T21:40:29.234Z,21.84
2022-08-19T21:43:32.546Z,21.81
2022-08-19T21:46:36.107Z,21.90
2022-08-19T21:49:39.180Z,21.94
2022-08-19T21:52:44.157Z,21.84
2022-08-19T21:55:52.795Z,21.84
2022-08-19T21:58:56.699Z,21.81
2022-08-19T22:02:15.855Z,21.78
2022-08-19T22:05:24.456Z,21.78
2022-08-19T22:08:29.757Z,21.70
2022-08-19T22:11:32.816Z,21.66
2022-08-19T22:14:36.036Z,21.61
2022-08-19T22:17:40.266Z,21.60
2022-08-19T22:20:45.330Z,21.64
2022-08-19T22:23:49.662Z,21.64
2022-08-19T22:26:52.668Z,21.65
2022-08-19T22:29:55.639Z,21.59
2022-08-19T22:33:01.232Z,21.64
2022-08-19T22:36:07.456Z,21.67
2022-08-19T22:39:11.860Z,21.70
2022-08-19T22:42:18.965Z,21.74
2022-08-19T22:45:22.582Z,21.74
2022-08-19T22:48:29.670Z,21.69
2022-08-19T22:51:46.854Z,21.71
2022-08-19T22:54:54.585Z,21.74
2022-08-19T22:57:59.176Z,21.79
2022-08-19T23:01:02.602Z,21.87
2022-08-19T23:04:06.023Z,21.89
2022-08-19T23:07:09.288Z,21.87
2022-08-19T23:10:13.937Z,21.81
2022-08-19T23:13:31.789Z,21.75
2022-08-19T23:16:35.640Z,21.70
2022-08-19T23:19:39.347Z,21.68
2022-08-19T23:22:44.042Z,21.68
2022-08-19T23:25:50.066Z,21.76
2022-08-19T23:29:10.787Z,21.82
2022-08-19T23:32:16.145Z,21.75
2022-08-19T23:35:19.730Z,21.65
2022-08-19T23:38:23.632Z,21.64
2022-08-19T23:41:28.505Z,21.61
2022-08-19T23:44:31.615Z,21.63
2022-08-19T23:47:34.839Z,21.57
2022-08-19T23:50:40.984Z,21.54
2022-08-19T23:53:44.946Z,21.47
2022-08-19T23:56:49.217Z,21.46
2022-08-19T23:59:52.189Z,21.45
